Live aus Altenrhein
LIVE
LSZR 221750Z 22003KT CAVOK 29/16 Q1014 NOSIG RMK P

People´s Info Center:

Öffnungszeiten Mo-Fr, 8-18 Uhr

 

info@peoples.ch

 
Aus Österreich:

T: +43 (0)5572 203 610

 

Aus CH / LI / DE:

T: +41 (0)71 858 51 60

 

Wie viel Handgepäck/aufgegebenes Gepäck kann ich mitnehmen?

 

Handgepäck

1 Handgepäck à 8kg / Abmessung: 55cm x 40cm x 23cm

 

Premium-Tarif

1 Handgepäck à 8kg + 1 Handgepäck à 4kg / Abmessung: 55cm x 40cm x 23cm

 

Gepäck, welches Sie aufgeben

Gültig für alle Tarife, ausser Premium-Tarif:

  • Mehrere Gepäcksstücke/Passagier erlaubt, aber insgesamt nur 20kg
  • Überschreitung kostenpflichtig: EUR 50.- für weitere 20kg (Maximalgewicht pro Gepäckstück 30kg)
  • Kind: 1 Gepäcksstück à 20kg
  • Baby: kein Gepäck

 

Premium-Tarif

  • Mehrere Gepäcksstücke/Passagier erlaubt, aber insgesamt 30kg
  • Überschreitung kostenpflichtig: EUR 50.-
  • Kind: 1 Gepäcksstück à 20kg
  • Baby: kein Gepäck

 

 

Gepäckstücke über 32 kg werden nicht transportiert.

Skier, Snowboards, Skischuhe, Snowboardschuhe können gratis aufgegeben werden. Ein Golfbag kann bis zur Freigepäcksgrenze gratis aufgegeben werden.

 

Spezialgepäck:

Z.B. Sportgepäck, Waffen, Fahrräder: Preis auf Anfrage. Anmeldung im Voraus erforderlich.